createdAt,value
2018-03-08T00:01:16.028Z,23.15
2018-03-08T00:03:43.035Z,24.15
2018-03-08T00:06:09.276Z,24.90
2018-03-08T00:08:35.521Z,27.60
2018-03-08T00:11:01.756Z,23.25
2018-03-08T00:13:28.012Z,25.20
2018-03-08T00:15:54.260Z,26.42
2018-03-08T00:18:20.491Z,21.85
2018-03-08T00:20:46.752Z,25.62
2018-03-08T00:23:12.983Z,26.10
2018-03-08T00:25:39.233Z,26.35
2018-03-08T00:28:05.571Z,27.98
2018-03-08T00:30:32.579Z,26.67
2018-03-08T00:32:58.821Z,23.15
2018-03-08T00:35:25.152Z,19.45
2018-03-08T00:37:51.368Z,21.55
2018-03-08T00:40:17.600Z,19.27
2018-03-08T00:42:43.861Z,16.92
2018-03-08T00:45:10.860Z,16.50
2018-03-08T00:47:37.128Z,20.02
2018-03-08T00:50:03.396Z,18.90
2018-03-08T00:52:29.677Z,23.52
2018-03-08T00:54:55.924Z,23.67
2018-03-08T00:57:22.179Z,17.27
2018-03-08T00:59:48.407Z,17.27
2018-03-08T01:02:14.664Z,12.88
2018-03-08T01:04:40.951Z,13.32
2018-03-08T01:07:07.976Z,13.23
2018-03-08T01:09:34.231Z,14.57
2018-03-08T01:12:00.504Z,17.77
2018-03-08T01:14:26.761Z,16.10
2018-03-08T01:16:53.024Z,18.08
2018-03-08T01:19:20.026Z,17.40
2018-03-08T01:21:46.256Z,13.50
2018-03-08T01:24:12.494Z,16.12
2018-03-08T01:26:38.737Z,18.87
2018-03-08T01:29:04.975Z,15.18
2018-03-08T01:31:31.972Z,16.77
2018-03-08T01:33:58.207Z,15.30
2018-03-08T01:36:26.348Z,16.37
2018-03-08T01:38:52.590Z,14.02
2018-03-08T01:41:18.839Z,9.50
2018-03-08T01:43:45.091Z,14.18
2018-03-08T01:46:11.323Z,9.68
2018-03-08T01:48:37.567Z,17.37
2018-03-08T01:51:04.551Z,10.82
2018-03-08T01:53:30.840Z,10.85
2018-03-08T01:55:57.068Z,6.82
2018-03-08T01:58:24.055Z,8.77
2018-03-08T02:00:56.531Z,12.43
2018-03-08T02:03:22.763Z,9.57
2018-03-08T02:05:49.029Z,14.82
2018-03-08T02:08:15.269Z,13.62
2018-03-08T02:10:41.615Z,18.40
2018-03-08T02:13:08.624Z,10.15
2018-03-08T02:15:34.919Z,5.57
2018-03-08T02:18:01.143Z,10.38
2018-03-08T02:20:27.433Z,8.75
2018-03-08T02:22:54.589Z,18.52
2018-03-08T02:25:20.836Z,5.47
2018-03-08T02:27:47.843Z,8.68
2018-03-08T02:30:14.108Z,10.23
2018-03-08T02:32:41.117Z,9.43
2018-03-08T02:35:07.355Z,6.12
2018-03-08T02:37:33.632Z,10.88
2018-03-08T02:39:59.880Z,13.57
2018-03-08T02:42:26.116Z,6.43
2018-03-08T02:44:52.885Z,8.23
2018-03-08T02:47:19.127Z,8.07
2018-03-08T02:49:45.886Z,4.95
2018-03-08T02:52:12.970Z,6.62
2018-03-08T02:54:39.221Z,6.70
2018-03-08T02:57:05.471Z,10.23
2018-03-08T02:59:31.791Z,9.98
2018-03-08T03:01:58.042Z,11.00
2018-03-08T03:04:25.074Z,9.13
2018-03-08T03:06:51.328Z,7.95
2018-03-08T03:09:18.296Z,5.68
2018-03-08T03:11:44.531Z,5.43
2018-03-08T03:14:10.791Z,8.27
2018-03-08T03:16:37.022Z,8.15
2018-03-08T03:19:03.319Z,7.95
2018-03-08T03:21:29.548Z,6.85
2018-03-08T03:23:55.773Z,5.30
2018-03-08T03:26:22.012Z,9.73
2018-03-08T03:28:48.251Z,8.38
2018-03-08T03:31:14.516Z,7.60
2018-03-08T03:33:40.759Z,8.50
2018-03-08T03:36:07.758Z,5.90
2018-03-08T03:38:33.996Z,7.28
2018-03-08T03:41:00.218Z,9.73
2018-03-08T03:43:26.478Z,7.28
2018-03-08T03:45:52.745Z,8.30
2018-03-08T03:48:19.048Z,4.37
2018-03-08T03:50:46.083Z,9.48
2018-03-08T03:53:12.876Z,9.00
2018-03-08T03:55:39.107Z,5.90
2018-03-08T03:58:05.355Z,12.85
2018-03-08T04:00:32.531Z,9.20
2018-03-08T04:02:58.812Z,8.25
2018-03-08T04:05:25.075Z,9.18
2018-03-08T04:07:51.327Z,12.57
2018-03-08T04:10:17.587Z,4.25
2018-03-08T04:12:43.815Z,6.25
2018-03-08T04:15:10.095Z,9.65
2018-03-08T04:17:36.343Z,12.00
2018-03-08T04:20:02.642Z,9.32
2018-03-08T04:22:28.899Z,5.05
2018-03-08T04:24:55.131Z,8.15
2018-03-08T04:27:21.383Z,7.10
2018-03-08T04:29:48.367Z,10.23
2018-03-08T04:32:14.595Z,9.52
2018-03-08T04:34:40.859Z,6.72
2018-03-08T04:37:07.167Z,4.18
2018-03-08T04:39:33.403Z,5.55
2018-03-08T04:41:59.649Z,9.80
2018-03-08T04:44:25.895Z,5.25
2018-03-08T04:46:52.912Z,8.40
2018-03-08T04:49:19.603Z,8.68
2018-03-08T04:51:45.855Z,9.68
2018-03-08T04:54:12.130Z,16.25
2018-03-08T04:56:38.365Z,9.40
2018-03-08T04:59:05.376Z,6.85
2018-03-08T05:01:31.651Z,7.60
2018-03-08T05:03:57.940Z,9.43
2018-03-08T05:06:24.986Z,11.43
2018-03-08T05:08:51.216Z,11.43
2018-03-08T05:11:17.474Z,4.18
2018-03-08T05:13:44.442Z,7.50
2018-03-08T05:16:10.684Z,26.77
2018-03-08T05:18:36.931Z,11.15
2018-03-08T05:21:03.910Z,14.15
2018-03-08T05:23:30.168Z,9.25
2018-03-08T05:25:57.151Z,7.50
2018-03-08T05:28:23.395Z,10.13
2018-03-08T05:30:49.669Z,8.23
2018-03-08T05:33:15.911Z,7.85
2018-03-08T05:35:42.183Z,8.45
2018-03-08T05:38:08.411Z,10.30
2018-03-08T05:40:34.639Z,14.38
2018-03-08T05:43:00.894Z,6.70
2018-03-08T05:45:27.727Z,8.85
2018-03-08T05:47:53.971Z,9.32
2018-03-08T05:50:20.203Z,13.00
2018-03-08T05:52:47.202Z,6.90
2018-03-08T05:55:13.471Z,11.38
2018-03-08T05:57:40.480Z,7.93
2018-03-08T06:00:06.848Z,9.55
2018-03-08T06:02:33.092Z,11.50
2018-03-08T06:05:00.091Z,8.20
2018-03-08T06:07:26.359Z,12.55
2018-03-08T06:09:52.603Z,9.25
2018-03-08T06:12:19.652Z,7.32
2018-03-08T06:14:46.631Z,10.07
2018-03-08T06:17:12.893Z,9.38
2018-03-08T06:19:39.164Z,10.73
2018-03-08T06:22:05.427Z,9.65
2018-03-08T06:24:31.691Z,13.02
2018-03-08T06:26:58.692Z,11.68
2018-03-08T06:29:24.951Z,9.98
2018-03-08T06:31:51.219Z,6.95
2018-03-08T06:34:18.228Z,12.10
2018-03-08T06:36:44.547Z,12.75
2018-03-08T06:39:10.783Z,10.60
2018-03-08T06:41:37.011Z,11.00
2018-03-08T06:44:03.287Z,8.82
2018-03-08T06:46:29.575Z,12.27
2018-03-08T06:48:55.883Z,11.02
2018-03-08T06:51:22.194Z,11.48
2018-03-08T06:53:48.448Z,8.82
2018-03-08T06:56:14.708Z,10.18
2018-03-08T06:58:40.955Z,10.75
2018-03-08T07:01:07.312Z,8.30
2018-03-08T07:03:33.576Z,13.07
2018-03-08T07:05:59.843Z,9.70
2018-03-08T07:08:26.896Z,14.75
2018-03-08T07:10:53.148Z,9.80
2018-03-08T07:13:19.411Z,9.07
2018-03-08T07:15:45.723Z,9.98
2018-03-08T07:18:12.683Z,13.20
2018-03-08T07:20:38.923Z,11.90
2018-03-08T07:23:05.455Z,9.93
2018-03-08T07:25:31.716Z,10.75
2018-03-08T07:27:58.724Z,12.23
2018-03-08T07:30:25.010Z,18.67
2018-03-08T07:32:51.995Z,13.13
2018-03-08T07:35:18.263Z,12.40
2018-03-08T07:37:44.503Z,13.20
2018-03-08T07:40:11.512Z,11.45
2018-03-08T07:42:37.761Z,11.32
2018-03-08T07:45:04.049Z,10.60
2018-03-08T07:47:30.304Z,12.32
2018-03-08T07:49:56.556Z,11.77
2018-03-08T07:52:22.789Z,18.02
2018-03-08T07:54:49.034Z,13.65
2018-03-08T07:57:16.004Z,11.68
2018-03-08T07:59:42.279Z,11.35
2018-03-08T08:02:08.544Z,13.65
2018-03-08T08:04:47.780Z,10.35
2018-03-08T08:07:27.200Z,8.95
2018-03-08T08:09:54.212Z,15.23
2018-03-08T08:12:20.441Z,8.35
2018-03-08T08:14:46.722Z,14.50
2018-03-08T08:17:13.723Z,9.27
2018-03-08T08:19:40.011Z,11.10
2018-03-08T08:22:06.320Z,10.07
2018-03-08T08:24:33.340Z,13.02
2018-03-08T08:26:59.655Z,15.05
2018-03-08T08:29:25.904Z,9.10
2018-03-08T08:31:52.163Z,9.07
2018-03-08T08:34:19.199Z,10.60
2018-03-08T08:36:45.441Z,9.98
2018-03-08T08:39:11.737Z,9.90
2018-03-08T08:41:38.008Z,12.75
2018-03-08T08:44:04.244Z,13.98
2018-03-08T08:46:30.535Z,17.25
2018-03-08T08:48:56.804Z,18.73
2018-03-08T08:51:23.075Z,15.93
2018-03-08T08:53:49.368Z,12.80
2018-03-08T08:56:15.623Z,9.57
2018-03-08T08:58:41.887Z,10.35
2018-03-08T09:01:08.160Z,9.57
2018-03-08T09:03:34.389Z,10.63
2018-03-08T09:06:00.671Z,11.57
2018-03-08T09:08:26.954Z,13.30
2018-03-08T09:10:53.261Z,13.57
2018-03-08T09:13:19.548Z,13.35
2018-03-08T09:15:45.800Z,12.43
2018-03-08T09:18:12.124Z,11.20
2018-03-08T09:20:38.372Z,8.82
2018-03-08T09:23:05.407Z,11.07
2018-03-08T09:25:31.727Z,8.68
2018-03-08T09:27:58.784Z,10.20
2018-03-08T09:30:25.825Z,10.45
2018-03-08T09:32:52.137Z,9.38
2018-03-08T09:35:19.180Z,12.65
2018-03-08T09:37:45.473Z,9.45
2018-03-08T09:40:11.723Z,11.80
2018-03-08T09:42:37.992Z,9.20
2018-03-08T09:45:04.295Z,10.18
2018-03-08T09:47:30.568Z,12.75
2018-03-08T09:49:57.585Z,5.97
2018-03-08T09:52:23.826Z,9.27
2018-03-08T09:54:50.076Z,6.18
2018-03-08T09:57:17.055Z,6.15
2018-03-08T09:59:43.303Z,6.25
2018-03-08T10:02:09.575Z,9.75
2018-03-08T10:04:36.579Z,6.70
2018-03-08T10:07:02.980Z,6.90
2018-03-08T10:09:29.281Z,4.85
2018-03-08T10:11:55.787Z,8.38
2018-03-08T10:14:22.090Z,6.60
2018-03-08T10:16:48.337Z,5.72
2018-03-08T10:19:14.672Z,6.10
2018-03-08T10:21:44.546Z,8.60
2018-03-08T10:24:07.228Z,6.40
2018-03-08T10:26:33.485Z,6.37
2018-03-08T10:28:59.788Z,9.02
2018-03-08T10:31:26.059Z,9.38
2018-03-08T10:33:53.036Z,9.50
2018-03-08T10:36:19.320Z,9.60
2018-03-08T10:38:45.572Z,5.32
2018-03-08T10:41:12.597Z,4.43
2018-03-08T10:43:38.817Z,5.85
2018-03-08T10:46:05.067Z,3.60
2018-03-08T10:48:31.399Z,6.40
2018-03-08T10:50:58.385Z,4.93
2018-03-08T10:53:24.656Z,4.57
2018-03-08T10:55:51.095Z,6.30
2018-03-08T10:58:18.096Z,4.80
2018-03-08T11:00:46.395Z,9.52
2018-03-08T11:03:12.681Z,4.37
2018-03-08T11:05:45.164Z,4.05
2018-03-08T11:08:11.449Z,5.50
2018-03-08T11:10:37.731Z,8.55
2018-03-08T11:13:04.011Z,6.07
2018-03-08T11:15:30.263Z,4.25
2018-03-08T11:17:57.241Z,5.97
2018-03-08T11:20:23.542Z,2.87
2018-03-08T11:22:49.803Z,7.82
2018-03-08T11:25:16.069Z,2.95
2018-03-08T11:27:42.307Z,3.30
2018-03-08T11:30:08.556Z,7.18
2018-03-08T11:32:35.544Z,3.35
2018-03-08T11:35:01.816Z,2.92
2018-03-08T11:37:28.873Z,5.50
2018-03-08T11:39:55.863Z,3.90
2018-03-08T11:42:22.104Z,3.08
2018-03-08T11:44:48.377Z,3.75
2018-03-08T11:47:15.382Z,4.10
2018-03-08T11:49:41.688Z,5.22
2018-03-08T11:52:07.973Z,3.87
2018-03-08T11:54:34.219Z,5.65
2018-03-08T11:57:01.260Z,1.55
2018-03-08T11:59:27.533Z,1.17
2018-03-08T12:01:53.879Z,5.43
2018-03-08T12:04:20.141Z,2.78
2018-03-08T12:06:47.168Z,2.62
2018-03-08T12:09:13.513Z,1.00
2018-03-08T12:11:39.784Z,2.40
2018-03-08T12:14:06.045Z,2.85
2018-03-08T12:16:32.323Z,1.30
2018-03-08T12:18:59.374Z,8.68
2018-03-08T12:21:27.183Z,3.47
2018-03-08T12:23:53.440Z,3.30
2018-03-08T12:26:19.704Z,5.70
2018-03-08T12:28:46.700Z,1.20
2018-03-08T12:31:12.943Z,1.50
2018-03-08T12:33:39.195Z,7.22
2018-03-08T12:36:05.480Z,3.35
2018-03-08T12:38:31.751Z,2.10
2018-03-08T12:40:58.824Z,12.20
2018-03-08T12:43:25.124Z,3.20
2018-03-08T12:45:51.384Z,6.40
2018-03-08T12:48:17.709Z,4.37
2018-03-08T12:50:44.684Z,6.15
2018-03-08T12:53:10.924Z,3.00
2018-03-08T12:55:37.233Z,6.53
2018-03-08T12:58:03.495Z,3.50
2018-03-08T13:00:29.791Z,3.67
2018-03-08T13:02:56.020Z,4.43
2018-03-08T13:05:22.313Z,7.10
2018-03-08T13:07:49.423Z,4.25
2018-03-08T13:10:15.685Z,2.25
2018-03-08T13:12:41.978Z,4.70
2018-03-08T13:15:08.291Z,2.60
2018-03-08T13:17:34.543Z,1.20
2018-03-08T13:20:00.796Z,2.55
2018-03-08T13:22:27.121Z,2.53
2018-03-08T13:24:53.408Z,6.72
2018-03-08T13:27:19.645Z,3.08
2018-03-08T13:29:45.979Z,2.85
2018-03-08T13:32:12.268Z,3.12
2018-03-08T13:34:39.335Z,7.12
2018-03-08T13:37:06.332Z,2.67
2018-03-08T13:39:32.578Z,11.07
2018-03-08T13:41:58.832Z,5.40
2018-03-08T13:44:25.833Z,9.73
2018-03-08T13:46:52.084Z,6.15
2018-03-08T13:52:19.332Z,3.67
2018-03-08T13:54:45.678Z,3.33
2018-03-08T13:57:11.980Z,4.47
2018-03-08T13:59:38.245Z,8.23
2018-03-08T14:02:07.190Z,2.53
2018-03-08T14:04:33.509Z,5.12
2018-03-08T14:06:59.883Z,5.00
2018-03-08T14:09:26.224Z,3.60
2018-03-08T14:11:52.512Z,3.20
2018-03-08T14:14:18.796Z,9.13
2018-03-08T14:16:45.837Z,12.35
2018-03-08T14:19:12.121Z,6.65
2018-03-08T14:21:38.445Z,7.85
2018-03-08T14:24:05.424Z,8.00
2018-03-08T14:26:31.725Z,5.62
2018-03-08T14:28:58.000Z,2.50
2018-03-08T14:31:24.298Z,4.82
2018-03-08T14:33:50.569Z,2.25
2018-03-08T14:36:17.559Z,7.97
2018-03-08T14:38:43.921Z,1.73
2018-03-08T14:41:10.216Z,1.45
2018-03-08T14:43:36.501Z,3.20
2018-03-08T14:46:02.832Z,3.40
2018-03-08T14:48:29.118Z,4.18
2018-03-08T14:50:55.412Z,3.17
2018-03-08T14:53:22.452Z,3.35
2018-03-08T14:55:48.806Z,3.95
2018-03-08T14:58:15.832Z,2.45
2018-03-08T15:00:42.136Z,2.40
2018-03-08T15:03:08.475Z,3.95
2018-03-08T15:05:34.739Z,2.50
2018-03-08T15:08:02.210Z,3.03
2018-03-08T15:10:28.467Z,5.32
2018-03-08T15:12:54.744Z,6.12
2018-03-08T15:15:21.779Z,9.02
2018-03-08T15:17:48.132Z,5.57
2018-03-08T15:20:15.167Z,2.83
2018-03-08T15:22:41.415Z,3.45
2018-03-08T15:25:07.713Z,2.15
2018-03-08T15:27:34.040Z,1.95
2018-03-08T15:30:00.291Z,5.47
2018-03-08T15:32:26.620Z,3.03
2018-03-08T15:34:52.960Z,2.40
2018-03-08T15:37:19.971Z,5.75
2018-03-08T15:39:46.250Z,5.10
2018-03-08T15:42:12.499Z,9.88
2018-03-08T15:44:38.823Z,9.15
2018-03-08T15:47:05.119Z,12.65
2018-03-08T15:49:31.396Z,5.85
2018-03-08T15:51:57.774Z,7.22
2018-03-08T15:54:24.791Z,4.43
2018-03-08T15:56:51.380Z,1.85
2018-03-08T15:59:18.454Z,9.35
2018-03-08T16:01:44.736Z,2.58
2018-03-08T16:04:11.015Z,2.70
2018-03-08T16:06:49.516Z,1.60
2018-03-08T16:09:28.132Z,1.40
2018-03-08T16:11:55.236Z,1.77
2018-03-08T16:14:21.508Z,1.67
2018-03-08T16:16:47.828Z,1.35
2018-03-08T16:19:14.183Z,2.20
2018-03-08T16:21:40.440Z,2.28
2018-03-08T16:24:06.688Z,1.35
2018-03-08T16:26:32.985Z,4.22
2018-03-08T16:28:59.292Z,1.52
2018-03-08T16:31:25.582Z,1.05
2018-03-08T16:33:51.872Z,2.83
2018-03-08T16:36:19.021Z,1.73
2018-03-08T16:38:45.412Z,1.90
2018-03-08T16:41:12.416Z,2.75
2018-03-08T16:43:38.691Z,3.95
2018-03-08T16:46:05.742Z,5.87
2018-03-08T16:48:32.776Z,3.10
2018-03-08T16:50:59.065Z,5.35
2018-03-08T16:53:25.462Z,4.62
2018-03-08T16:55:52.512Z,4.68
2018-03-08T16:58:18.768Z,7.18
2018-03-08T17:00:45.037Z,4.78
2018-03-08T17:03:11.962Z,2.55
2018-03-08T17:05:38.214Z,1.67
2018-03-08T17:08:04.776Z,1.50
2018-03-08T17:10:31.812Z,1.70
2018-03-08T17:12:58.149Z,1.73
2018-03-08T17:15:25.180Z,1.42
2018-03-08T17:17:51.436Z,3.20
2018-03-08T17:20:18.510Z,1.85
2018-03-08T17:22:44.812Z,2.72
2018-03-08T17:25:11.843Z,5.37
2018-03-08T17:27:38.207Z,5.15
2018-03-08T17:30:04.797Z,4.85
2018-03-08T17:32:31.070Z,3.35
2018-03-08T17:34:57.355Z,5.80
2018-03-08T17:37:23.617Z,3.97
2018-03-08T17:39:50.607Z,3.08
2018-03-08T17:42:16.908Z,5.90
2018-03-08T17:44:43.180Z,3.10
2018-03-08T17:47:09.484Z,4.65
2018-03-08T17:49:36.595Z,5.78
2018-03-08T17:52:03.592Z,5.97
2018-03-08T17:54:29.890Z,4.72
2018-03-08T17:56:56.156Z,5.68
2018-03-08T17:59:22.439Z,5.30
2018-03-08T18:01:49.454Z,12.13
2018-03-08T18:04:15.708Z,5.60
2018-03-08T18:06:42.024Z,2.78
2018-03-08T18:09:08.354Z,4.53
2018-03-08T18:11:34.704Z,2.62
2018-03-08T18:14:01.730Z,4.62
2018-03-08T18:16:28.003Z,3.08
2018-03-08T18:18:54.285Z,6.12
2018-03-08T18:21:20.556Z,4.30
2018-03-08T18:23:46.811Z,5.00
2018-03-08T18:26:13.068Z,2.72
2018-03-08T18:28:39.324Z,2.60
2018-03-08T18:31:06.332Z,4.20
2018-03-08T18:33:32.584Z,4.05
2018-03-08T18:35:59.258Z,2.70
2018-03-08T18:38:25.511Z,4.37
2018-03-08T18:40:51.760Z,2.30
2018-03-08T18:43:18.055Z,4.60
2018-03-08T18:45:44.324Z,3.00
2018-03-08T18:48:10.915Z,5.00
2018-03-08T18:50:37.172Z,4.97
2018-03-08T18:53:03.509Z,6.18
2018-03-08T18:55:29.788Z,4.32
2018-03-08T18:58:06.796Z,2.83
2018-03-08T19:00:33.077Z,5.75
2018-03-08T19:02:59.320Z,3.25
2018-03-08T19:05:26.354Z,5.70
2018-03-08T19:07:52.627Z,4.30
2018-03-08T19:10:18.892Z,11.10
2018-03-08T19:12:45.196Z,4.07
2018-03-08T19:15:11.447Z,6.05
2018-03-08T19:17:37.718Z,7.93
2018-03-08T19:20:04.752Z,4.37
2018-03-08T19:22:31.811Z,4.65
2018-03-08T19:24:58.151Z,4.03
2018-03-08T19:27:24.428Z,9.38
2018-03-08T19:29:50.695Z,4.97
2018-03-08T19:32:17.800Z,9.23
2018-03-08T19:34:44.068Z,8.50
2018-03-08T19:37:10.331Z,4.72
2018-03-08T19:39:38.478Z,4.20
2018-03-08T19:42:05.490Z,4.80
2018-03-08T19:44:31.761Z,7.00
2018-03-08T19:46:58.763Z,9.90
2018-03-08T19:49:25.097Z,5.40
2018-03-08T19:51:51.494Z,4.10
2018-03-08T19:54:17.782Z,5.50
2018-03-08T19:56:44.119Z,6.00
2018-03-08T19:59:10.415Z,4.47
2018-03-08T20:01:37.027Z,5.70
2018-03-08T20:04:03.395Z,5.18
2018-03-08T20:06:29.723Z,6.82
2018-03-08T20:08:56.099Z,8.32
2018-03-08T20:11:23.130Z,6.90
2018-03-08T20:13:49.493Z,8.82
2018-03-08T20:16:15.838Z,9.57
2018-03-08T20:18:42.171Z,10.02
2018-03-08T20:21:08.584Z,11.45
2018-03-08T20:23:34.830Z,7.80
2018-03-08T20:26:01.504Z,10.90
2018-03-08T20:28:27.797Z,8.57
2018-03-08T20:30:54.064Z,14.05
2018-03-08T20:33:20.323Z,9.50
2018-03-08T20:35:46.607Z,7.00
2018-03-08T20:38:13.230Z,10.45
2018-03-08T20:40:39.475Z,8.70
2018-03-08T20:43:05.739Z,6.18
2018-03-08T20:45:32.044Z,7.78
2018-03-08T20:47:58.312Z,7.15
2018-03-08T20:50:24.568Z,5.97
2018-03-08T20:52:50.828Z,6.85
2018-03-08T20:55:17.079Z,7.25
2018-03-08T20:57:43.379Z,5.87
2018-03-08T21:00:09.679Z,7.85
2018-03-08T21:02:36.717Z,7.05
2018-03-08T21:05:03.712Z,10.20
2018-03-08T21:07:29.987Z,9.63
2018-03-08T21:09:57.032Z,10.43
2018-03-08T21:12:24.054Z,5.15
2018-03-08T21:14:50.325Z,13.88
2018-03-08T21:17:17.312Z,9.38
2018-03-08T21:19:43.576Z,7.07
2018-03-08T21:22:09.848Z,5.30
2018-03-08T21:24:36.123Z,6.00
2018-03-08T21:27:02.444Z,9.55
2018-03-08T21:29:28.719Z,5.47
2018-03-08T21:31:54.992Z,5.15
2018-03-08T21:34:21.275Z,10.88
2018-03-08T21:36:48.266Z,7.53
2018-03-08T21:39:14.527Z,11.23
2018-03-08T21:41:40.809Z,11.80
2018-03-08T21:44:07.088Z,9.48
2018-03-08T21:46:33.360Z,11.32
2018-03-08T21:48:59.624Z,15.93
2018-03-08T21:51:26.136Z,9.65
2018-03-08T21:53:52.400Z,8.55
2018-03-08T21:56:18.668Z,6.12
2018-03-08T21:58:45.671Z,13.57
2018-03-08T22:01:12.873Z,13.45
2018-03-08T22:03:39.203Z,9.20
2018-03-08T22:06:06.211Z,8.45
2018-03-08T22:08:32.615Z,8.40
2018-03-08T22:10:58.896Z,10.57
2018-03-08T22:13:25.881Z,6.10
2018-03-08T22:15:52.190Z,6.55
2018-03-08T22:18:18.458Z,7.00
2018-03-08T22:20:44.807Z,10.70
2018-03-08T22:23:11.081Z,12.50
2018-03-08T22:25:38.118Z,6.80
2018-03-08T22:28:06.582Z,9.02
2018-03-08T22:30:32.933Z,6.47
2018-03-08T22:32:59.165Z,9.07
2018-03-08T22:35:25.411Z,6.25
2018-03-08T22:37:51.678Z,9.88
2018-03-08T22:40:17.907Z,7.15
2018-03-08T22:42:44.195Z,15.65
2018-03-08T22:45:10.464Z,14.13
2018-03-08T22:47:36.734Z,6.70
2018-03-08T22:50:03.061Z,11.05
2018-03-08T22:52:30.067Z,12.45
2018-03-08T22:54:56.354Z,7.28
2018-03-08T22:57:22.676Z,9.70
2018-03-08T22:59:49.662Z,7.60
2018-03-08T23:02:17.079Z,6.95
2018-03-08T23:04:44.138Z,5.53
2018-03-08T23:07:10.456Z,11.00
2018-03-08T23:09:37.527Z,12.27
2018-03-08T23:12:03.830Z,10.27
2018-03-08T23:14:30.839Z,8.95
2018-03-08T23:16:57.126Z,10.70
2018-03-08T23:19:23.395Z,7.20
2018-03-08T23:21:49.660Z,6.28
2018-03-08T23:24:16.781Z,15.60
2018-03-08T23:26:43.043Z,8.43
2018-03-08T23:29:10.140Z,9.27
2018-03-08T23:31:36.447Z,9.70
2018-03-08T23:34:02.991Z,9.75
2018-03-08T23:36:29.244Z,6.50
2018-03-08T23:38:55.545Z,8.95
2018-03-08T23:41:21.788Z,8.95
2018-03-08T23:43:48.448Z,11.45
2018-03-08T23:46:14.898Z,5.75
2018-03-08T23:48:41.157Z,5.28
2018-03-08T23:51:08.155Z,3.28
2018-03-08T23:53:34.434Z,8.07
2018-03-08T23:56:00.700Z,5.12
2018-03-08T23:58:26.972Z,4.82
